createdAt,value
2019-03-31T00:00:40.473Z,0.00
2019-03-31T00:01:40.557Z,0.00
2019-03-31T00:02:40.438Z,0.00
2019-03-31T00:03:40.507Z,0.00
2019-03-31T00:04:40.417Z,0.00
2019-03-31T00:05:40.451Z,0.00
2019-03-31T00:06:40.396Z,0.00
2019-03-31T00:07:40.385Z,0.00
2019-03-31T00:08:40.377Z,0.00
2019-03-31T00:09:40.370Z,0.00
2019-03-31T00:10:40.363Z,0.00
2019-03-31T00:11:40.366Z,0.00
2019-03-31T00:12:40.354Z,0.00
2019-03-31T00:13:40.323Z,0.00
2019-03-31T00:14:40.322Z,0.00
2019-03-31T00:15:40.326Z,0.00
2019-03-31T00:16:40.288Z,0.00
2019-03-31T00:17:40.276Z,0.00
2019-03-31T00:18:40.262Z,0.00
2019-03-31T00:19:40.254Z,0.00
2019-03-31T00:20:40.309Z,0.00
2019-03-31T00:21:40.233Z,0.00
2019-03-31T00:22:40.227Z,0.00
2019-03-31T00:23:40.225Z,0.00
2019-03-31T00:24:40.198Z,0.00
2019-03-31T00:25:40.201Z,0.00
2019-03-31T00:26:40.192Z,0.00
2019-03-31T00:27:40.170Z,0.00
2019-03-31T00:28:40.158Z,0.00
2019-03-31T00:29:40.168Z,0.00
2019-03-31T00:30:40.166Z,0.00
2019-03-31T00:31:40.126Z,0.00
2019-03-31T00:32:40.122Z,0.00
2019-03-31T00:33:40.106Z,0.00
2019-03-31T00:34:40.088Z,0.00
2019-03-31T00:35:40.134Z,0.00
2019-03-31T00:36:40.068Z,0.00
2019-03-31T00:37:40.060Z,0.00
2019-03-31T00:38:40.052Z,0.00
2019-03-31T00:39:40.034Z,0.00
2019-03-31T00:40:40.032Z,0.00
2019-03-31T00:41:40.036Z,0.00
2019-03-31T00:42:40.049Z,0.00
2019-03-31T00:43:39.996Z,0.00
2019-03-31T00:44:39.996Z,0.00
2019-03-31T00:45:39.974Z,0.00
2019-03-31T00:46:39.986Z,0.00
2019-03-31T00:47:39.960Z,0.00
2019-03-31T00:48:39.944Z,0.00
2019-03-31T00:49:39.934Z,0.00
2019-03-31T00:50:39.992Z,0.00
2019-03-31T00:51:39.927Z,0.00
2019-03-31T00:52:39.899Z,0.00
2019-03-31T00:53:39.887Z,0.00
2019-03-31T00:54:39.877Z,0.00
2019-03-31T00:55:39.867Z,0.00
2019-03-31T00:56:39.902Z,0.00
2019-03-31T00:57:39.839Z,0.00
2019-03-31T00:58:39.836Z,0.00
2019-03-31T00:59:39.827Z,0.00
2019-03-31T01:00:39.810Z,0.00
2019-03-31T01:01:39.815Z,0.00
2019-03-31T01:02:39.795Z,0.00
2019-03-31T01:03:39.805Z,0.00
2019-03-31T01:04:39.845Z,0.00
2019-03-31T01:05:39.758Z,0.00
2019-03-31T01:06:39.811Z,0.00
2019-03-31T01:07:39.744Z,0.00
2019-03-31T01:08:39.725Z,0.00
2019-03-31T01:09:39.711Z,0.00
2019-03-31T01:10:39.711Z,0.00
2019-03-31T01:11:39.705Z,0.00
2019-03-31T01:12:39.691Z,0.00
2019-03-31T01:13:39.667Z,0.00
2019-03-31T01:14:39.657Z,0.00
2019-03-31T01:15:39.659Z,0.00
2019-03-31T01:16:39.657Z,0.00
2019-03-31T01:17:39.667Z,0.00
2019-03-31T01:18:39.620Z,0.00
2019-03-31T01:19:39.609Z,0.00
2019-03-31T01:20:39.634Z,0.00
2019-03-31T01:21:39.613Z,0.00
2019-03-31T01:22:39.574Z,0.00
2019-03-31T01:23:39.565Z,0.00
2019-03-31T01:24:39.558Z,0.00
2019-03-31T01:25:39.546Z,0.00
2019-03-31T01:26:39.534Z,0.00
2019-03-31T01:27:39.576Z,0.00
2019-03-31T01:28:39.508Z,0.00
2019-03-31T01:29:39.503Z,0.00
2019-03-31T01:30:39.496Z,0.00
2019-03-31T01:31:49.647Z,0.00
2019-03-31T01:32:40.483Z,0.00
2019-03-31T01:33:39.462Z,0.00
2019-03-31T01:34:39.440Z,0.00
2019-03-31T01:35:39.440Z,0.00
2019-03-31T01:36:39.424Z,0.00
2019-03-31T01:37:39.459Z,0.00
2019-03-31T01:38:39.401Z,0.00
2019-03-31T01:39:39.382Z,0.00
2019-03-31T01:40:39.415Z,0.00
2019-03-31T01:41:39.371Z,0.00
2019-03-31T01:42:39.378Z,0.00
2019-03-31T01:43:39.344Z,0.00
2019-03-31T01:44:39.337Z,0.00
2019-03-31T01:45:39.324Z,0.00
2019-03-31T01:46:39.314Z,0.00
2019-03-31T01:47:39.383Z,0.00
2019-03-31T01:48:39.292Z,0.00
2019-03-31T01:49:39.274Z,0.00
2019-03-31T01:50:39.270Z,0.00
2019-03-31T01:51:39.260Z,0.00
2019-03-31T01:52:39.268Z,0.00
2019-03-31T01:53:39.274Z,0.00
2019-03-31T01:54:39.230Z,0.00
2019-03-31T01:55:39.224Z,0.00
2019-03-31T01:56:39.202Z,0.00
2019-03-31T01:57:39.209Z,0.00
2019-03-31T01:58:39.183Z,0.00
2019-03-31T01:59:39.176Z,0.00
2019-03-31T02:00:39.162Z,0.00
2019-03-31T02:01:39.218Z,0.00
2019-03-31T02:02:39.160Z,0.00
2019-03-31T02:03:39.129Z,0.00
2019-03-31T02:04:39.129Z,0.00
2019-03-31T02:05:39.106Z,0.00
2019-03-31T02:06:39.090Z,0.00
2019-03-31T02:07:39.177Z,0.00
2019-03-31T02:08:39.084Z,0.00
2019-03-31T02:09:39.070Z,0.00
2019-03-31T02:10:39.073Z,0.00
2019-03-31T02:11:39.042Z,0.00
2019-03-31T02:12:39.033Z,0.00
2019-03-31T02:13:39.035Z,0.00
2019-03-31T02:14:39.018Z,0.00
2019-03-31T02:15:39.003Z,0.00
2019-03-31T02:16:38.990Z,0.00
2019-03-31T02:17:38.981Z,0.00
2019-03-31T02:18:39.036Z,0.00
2019-03-31T02:19:38.959Z,0.00
2019-03-31T02:20:38.967Z,0.00
2019-03-31T02:21:38.934Z,0.00
2019-03-31T02:22:38.925Z,0.00
2019-03-31T02:23:38.932Z,0.00
2019-03-31T02:24:38.897Z,0.00
2019-03-31T02:25:38.887Z,0.00
2019-03-31T02:26:38.877Z,0.00
2019-03-31T02:27:38.879Z,0.00
2019-03-31T02:28:38.877Z,0.00
2019-03-31T02:29:38.851Z,0.00
2019-03-31T02:30:38.837Z,0.00
2019-03-31T02:31:38.826Z,0.00
2019-03-31T02:32:38.810Z,0.00
2019-03-31T02:33:38.819Z,0.00
2019-03-31T02:34:38.857Z,0.00
2019-03-31T02:35:38.785Z,0.00
2019-03-31T02:36:38.772Z,0.00
2019-03-31T02:37:38.805Z,0.00
2019-03-31T02:38:38.763Z,0.00
2019-03-31T02:39:38.742Z,0.00
2019-03-31T02:40:38.729Z,0.00
2019-03-31T02:41:38.717Z,0.00
2019-03-31T02:42:38.711Z,0.00
2019-03-31T02:43:38.821Z,0.00
2019-03-31T02:44:38.685Z,0.00
2019-03-31T02:45:38.683Z,0.00
2019-03-31T02:46:38.669Z,0.00
2019-03-31T02:47:38.781Z,0.00
2019-03-31T02:48:38.663Z,0.00
2019-03-31T02:49:38.655Z,0.00
2019-03-31T02:50:38.624Z,0.00
2019-03-31T02:51:38.621Z,0.00
2019-03-31T02:52:38.629Z,0.00
2019-03-31T02:53:38.597Z,0.00
2019-03-31T02:54:38.595Z,0.00
2019-03-31T02:55:38.569Z,0.00
2019-03-31T02:56:38.554Z,0.00
2019-03-31T02:57:38.545Z,0.00
2019-03-31T02:58:38.540Z,0.00
2019-03-31T02:59:38.586Z,0.00
2019-03-31T03:00:38.515Z,0.00
2019-03-31T03:01:38.504Z,0.00
2019-03-31T03:02:42.181Z,0.00
2019-03-31T03:03:38.474Z,0.00
2019-03-31T03:04:38.482Z,0.00
2019-03-31T03:05:38.496Z,0.00
2019-03-31T03:06:38.454Z,0.00
2019-03-31T03:07:38.428Z,0.00
2019-03-31T03:08:38.445Z,0.00
2019-03-31T03:09:38.432Z,0.00
2019-03-31T03:10:38.400Z,0.00
2019-03-31T03:11:38.390Z,0.00
2019-03-31T03:12:38.378Z,0.00
2019-03-31T03:13:38.363Z,0.00
2019-03-31T03:14:38.402Z,0.00
2019-03-31T03:15:38.341Z,0.00
2019-03-31T03:16:38.331Z,0.00
2019-03-31T03:17:38.330Z,0.00
2019-03-31T03:18:38.315Z,0.00
2019-03-31T03:19:38.320Z,0.00
2019-03-31T03:20:38.289Z,0.00
2019-03-31T03:21:38.323Z,0.00
2019-03-31T03:22:38.276Z,0.00
2019-03-31T03:23:38.263Z,0.00
2019-03-31T03:24:38.267Z,0.00
2019-03-31T03:25:54.521Z,0.00
2019-03-31T03:26:39.229Z,0.00
2019-03-31T03:27:38.234Z,0.00
2019-03-31T03:28:38.209Z,0.00
2019-03-31T03:29:38.205Z,0.00
2019-03-31T03:30:38.383Z,0.00
2019-03-31T03:31:38.328Z,0.00
2019-03-31T03:32:38.163Z,0.00
2019-03-31T03:33:38.222Z,0.00
2019-03-31T03:34:38.161Z,0.00
2019-03-31T03:35:38.149Z,0.00
2019-03-31T03:36:42.582Z,0.00
2019-03-31T03:37:39.111Z,0.00
2019-03-31T03:38:38.139Z,0.00
2019-03-31T03:39:38.107Z,0.00
2019-03-31T03:40:38.144Z,0.00
2019-03-31T03:41:38.077Z,0.00
2019-03-31T03:42:38.052Z,0.00
2019-03-31T03:43:54.130Z,0.00
2019-03-31T03:44:39.065Z,0.00
2019-03-31T03:45:38.033Z,0.00
2019-03-31T03:46:38.038Z,0.00
2019-03-31T03:47:38.010Z,0.00
2019-03-31T03:48:37.989Z,0.00
2019-03-31T03:49:37.980Z,0.00
2019-03-31T03:50:37.993Z,0.00
2019-03-31T03:51:37.963Z,0.00
2019-03-31T03:52:37.987Z,0.00
2019-03-31T03:53:37.951Z,0.00
2019-03-31T03:54:37.931Z,0.00
2019-03-31T03:55:37.939Z,0.00
2019-03-31T03:56:37.910Z,0.00
2019-03-31T03:57:37.918Z,0.00
2019-03-31T03:58:37.898Z,0.00
2019-03-31T03:59:37.909Z,0.00
2019-03-31T04:00:37.881Z,0.00
2019-03-31T04:01:37.853Z,0.00
2019-03-31T04:02:37.848Z,0.00
2019-03-31T04:03:37.838Z,0.00
2019-03-31T04:04:37.837Z,0.00
2019-03-31T04:05:37.849Z,0.00
2019-03-31T04:06:37.802Z,0.00
2019-03-31T04:07:37.816Z,0.00
2019-03-31T04:08:37.783Z,0.00
2019-03-31T04:09:37.761Z,0.00
2019-03-31T04:10:37.778Z,0.00
2019-03-31T04:11:37.744Z,0.00
2019-03-31T04:12:37.819Z,0.00
2019-03-31T04:13:37.716Z,0.00
2019-03-31T04:14:37.736Z,0.00
2019-03-31T04:15:37.717Z,0.00
2019-03-31T04:16:37.696Z,0.00
2019-03-31T04:17:37.725Z,0.00
2019-03-31T04:18:37.668Z,0.00
2019-03-31T04:19:37.658Z,0.00
2019-03-31T04:20:39.560Z,0.00
2019-03-31T04:21:37.643Z,0.00
2019-03-31T04:22:37.625Z,0.00
2019-03-31T04:23:37.655Z,0.00
2019-03-31T04:24:37.607Z,0.00
2019-03-31T04:25:37.605Z,0.00
2019-03-31T04:26:37.603Z,0.00
2019-03-31T04:27:37.568Z,0.00
2019-03-31T04:28:37.562Z,0.00
2019-03-31T04:29:37.553Z,0.00
2019-03-31T04:30:37.557Z,0.00
2019-03-31T04:31:37.522Z,5.62
2019-03-31T04:32:38.894Z,5.62
2019-03-31T04:33:50.523Z,5.62
2019-03-31T04:34:38.543Z,5.62
2019-03-31T04:35:37.499Z,5.62
2019-03-31T04:36:37.470Z,5.62
2019-03-31T04:37:37.462Z,11.25
2019-03-31T04:38:37.456Z,11.25
2019-03-31T04:39:37.439Z,11.25
2019-03-31T04:40:37.454Z,11.25
2019-03-31T04:41:37.457Z,16.88
2019-03-31T04:42:37.401Z,16.88
2019-03-31T04:43:37.392Z,16.88
2019-03-31T04:44:37.387Z,16.88
2019-03-31T04:45:37.368Z,22.50
2019-03-31T04:46:37.434Z,22.50
2019-03-31T04:47:37.351Z,22.50
2019-03-31T04:48:37.339Z,28.12
2019-03-31T04:49:37.340Z,28.12
2019-03-31T04:50:37.316Z,33.75
2019-03-31T04:51:37.326Z,33.75
2019-03-31T04:52:37.306Z,39.38
2019-03-31T04:53:37.307Z,39.38
2019-03-31T04:54:37.282Z,45.00
2019-03-31T04:55:37.274Z,45.00
2019-03-31T04:56:37.267Z,50.62
2019-03-31T04:57:37.248Z,50.62
2019-03-31T04:58:37.228Z,56.25
2019-03-31T04:59:37.256Z,61.88
2019-03-31T05:00:37.207Z,61.88
2019-03-31T05:01:37.209Z,67.50
2019-03-31T05:02:37.186Z,67.50
2019-03-31T05:03:37.175Z,73.12
2019-03-31T05:04:37.165Z,78.75
2019-03-31T05:05:37.158Z,84.38
2019-03-31T05:06:37.176Z,90.00
2019-03-31T05:07:37.136Z,95.62
2019-03-31T05:08:37.125Z,95.62
2019-03-31T05:09:37.114Z,101.25
2019-03-31T05:10:37.100Z,101.25
2019-03-31T05:11:37.106Z,106.88
2019-03-31T05:12:37.076Z,112.50
2019-03-31T05:13:37.065Z,112.50
2019-03-31T05:14:37.057Z,112.50
2019-03-31T05:15:37.086Z,118.12
2019-03-31T05:16:37.050Z,123.75
2019-03-31T05:17:37.035Z,135.00
2019-03-31T05:18:37.009Z,129.38
2019-03-31T05:19:36.996Z,135.00
2019-03-31T05:20:36.991Z,135.00
2019-03-31T05:21:37.046Z,140.62
2019-03-31T05:22:36.967Z,151.88
2019-03-31T05:23:36.951Z,157.50
2019-03-31T05:24:36.944Z,163.12
2019-03-31T05:25:36.937Z,174.38
2019-03-31T05:26:36.922Z,180.00
2019-03-31T05:27:36.936Z,185.62
2019-03-31T05:28:36.899Z,185.62
2019-03-31T05:29:36.891Z,191.25
2019-03-31T05:30:36.877Z,196.88
2019-03-31T05:31:36.870Z,208.12
2019-03-31T05:32:36.876Z,213.75
2019-03-31T05:33:36.869Z,213.75
2019-03-31T05:34:36.840Z,230.62
2019-03-31T05:35:36.825Z,225.00
2019-03-31T05:36:36.809Z,191.25
2019-03-31T05:37:50.186Z,174.38
2019-03-31T05:38:37.791Z,151.88
2019-03-31T05:39:36.779Z,151.88
2019-03-31T05:40:36.807Z,157.50
2019-03-31T05:41:36.761Z,151.88
2019-03-31T05:42:36.773Z,163.12
2019-03-31T05:43:36.739Z,168.75
2019-03-31T05:44:36.729Z,168.75
2019-03-31T05:45:36.715Z,174.38
2019-03-31T05:46:36.709Z,174.38
2019-03-31T05:47:36.705Z,174.38
2019-03-31T05:48:36.707Z,180.00
2019-03-31T05:49:36.706Z,185.62
2019-03-31T05:50:36.659Z,185.62
2019-03-31T05:51:36.655Z,185.62
2019-03-31T05:52:36.650Z,191.25
2019-03-31T05:53:36.631Z,208.12
2019-03-31T05:54:36.618Z,213.75
2019-03-31T05:55:36.622Z,202.50
2019-03-31T05:56:36.597Z,191.25
2019-03-31T05:57:36.597Z,191.25
2019-03-31T05:58:36.578Z,196.88
2019-03-31T05:59:36.561Z,196.88
2019-03-31T06:00:36.553Z,196.88
2019-03-31T06:01:36.637Z,213.75
2019-03-31T06:02:36.546Z,230.62
2019-03-31T06:03:36.520Z,236.25
2019-03-31T06:04:36.513Z,253.12
2019-03-31T06:05:36.501Z,309.38
2019-03-31T06:06:37.222Z,326.25
2019-03-31T06:07:36.534Z,382.50
2019-03-31T06:08:36.472Z,371.25
2019-03-31T06:09:36.454Z,388.12
2019-03-31T06:10:36.442Z,416.25
2019-03-31T06:11:36.432Z,421.88
2019-03-31T06:12:36.438Z,466.88
2019-03-31T06:13:36.410Z,478.12
2019-03-31T06:14:36.421Z,478.12
2019-03-31T06:15:36.390Z,483.75
2019-03-31T06:16:36.386Z,489.38
2019-03-31T06:17:36.384Z,489.38
2019-03-31T06:18:36.372Z,495.00
2019-03-31T06:19:36.353Z,495.00
2019-03-31T06:20:36.352Z,495.00
2019-03-31T06:21:36.366Z,495.00
2019-03-31T06:22:36.333Z,495.00
2019-03-31T06:23:36.306Z,495.00
2019-03-31T06:24:36.301Z,506.25
2019-03-31T06:25:36.288Z,506.25
2019-03-31T06:26:36.272Z,506.25
2019-03-31T06:27:36.298Z,511.88
2019-03-31T06:28:36.256Z,528.75
2019-03-31T06:29:36.240Z,545.62
2019-03-31T06:30:36.237Z,556.88
2019-03-31T06:31:36.215Z,568.12
2019-03-31T06:32:36.221Z,579.38
2019-03-31T06:33:36.249Z,601.88
2019-03-31T06:34:46.804Z,635.62
2019-03-31T06:35:37.181Z,798.75
2019-03-31T06:36:36.173Z,967.50
2019-03-31T06:37:36.156Z,1063.12
2019-03-31T06:38:36.157Z,1215.00
2019-03-31T06:39:36.137Z,1288.12
2019-03-31T06:40:36.119Z,1305.00
2019-03-31T06:41:36.137Z,1366.88
2019-03-31T06:42:36.106Z,1260.00
2019-03-31T06:43:36.110Z,1288.12
2019-03-31T06:44:38.087Z,1366.88
2019-03-31T06:45:36.069Z,1198.12
2019-03-31T06:46:36.053Z,1226.25
2019-03-31T06:47:36.095Z,1293.75
2019-03-31T06:48:36.070Z,1170.00
2019-03-31T06:49:36.025Z,1321.88
2019-03-31T06:50:36.013Z,1406.25
2019-03-31T06:51:36.003Z,1428.75
2019-03-31T06:52:35.989Z,1378.12
2019-03-31T06:53:35.987Z,1423.12
2019-03-31T06:54:36.003Z,1395.00
2019-03-31T06:55:35.959Z,1496.25
2019-03-31T06:56:35.941Z,1665.00
2019-03-31T06:57:35.931Z,1648.12
2019-03-31T06:58:35.957Z,1603.12
2019-03-31T06:59:35.909Z,1597.50
2019-03-31T07:00:35.934Z,1659.38
2019-03-31T07:01:35.895Z,1648.12
2019-03-31T07:02:35.881Z,1558.12
2019-03-31T07:03:35.870Z,1473.75
2019-03-31T07:04:35.879Z,1518.75
2019-03-31T07:05:35.846Z,1890.00
2019-03-31T07:06:35.835Z,1884.38
2019-03-31T07:07:35.845Z,1023.75
2019-03-31T07:08:35.826Z,2261.25
2019-03-31T07:09:35.826Z,1400.62
2019-03-31T07:10:35.792Z,1659.38
2019-03-31T07:11:35.781Z,1310.62
2019-03-31T07:12:35.771Z,1867.50
2019-03-31T07:13:35.756Z,1192.50
2019-03-31T07:14:35.765Z,2103.75
2019-03-31T07:15:35.752Z,1513.12
2019-03-31T07:16:35.742Z,2418.75
2019-03-31T07:17:35.761Z,2103.75
2019-03-31T07:18:35.723Z,1186.88
2019-03-31T07:19:35.724Z,1040.62
2019-03-31T07:20:35.694Z,945.00
2019-03-31T07:21:35.685Z,928.12
2019-03-31T07:22:35.662Z,978.75
2019-03-31T07:23:35.672Z,916.88
2019-03-31T07:24:35.702Z,736.88
2019-03-31T07:25:37.164Z,675.00
2019-03-31T07:26:35.623Z,646.88
2019-03-31T07:27:35.618Z,641.25
2019-03-31T07:28:35.595Z,658.12
2019-03-31T07:29:35.587Z,630.00
2019-03-31T07:30:35.584Z,646.88
2019-03-31T07:31:35.572Z,697.50
2019-03-31T07:32:35.550Z,765.00
2019-03-31T07:33:35.556Z,821.25
2019-03-31T07:34:35.540Z,787.50
2019-03-31T07:35:38.830Z,776.25
2019-03-31T07:36:35.523Z,759.38
2019-03-31T07:37:46.604Z,748.12
2019-03-31T07:38:39.204Z,843.75
2019-03-31T07:39:35.825Z,871.88
2019-03-31T07:40:35.653Z,967.50
2019-03-31T07:41:35.601Z,1085.62
2019-03-31T07:42:35.458Z,1051.88
2019-03-31T07:43:35.432Z,950.62
2019-03-31T07:44:35.429Z,1226.25
2019-03-31T07:45:35.440Z,810.00
2019-03-31T07:46:35.403Z,708.75
2019-03-31T07:47:35.455Z,691.88
2019-03-31T07:48:35.394Z,697.50
2019-03-31T07:49:35.369Z,669.38
2019-03-31T07:50:35.358Z,641.25
2019-03-31T07:51:37.554Z,545.62
2019-03-31T07:52:35.332Z,590.62
2019-03-31T07:53:35.317Z,551.25
2019-03-31T07:54:35.314Z,635.62
2019-03-31T07:55:35.303Z,680.62
2019-03-31T07:56:35.310Z,618.75
2019-03-31T07:57:35.293Z,590.62
2019-03-31T07:58:35.261Z,607.50
2019-03-31T07:59:35.283Z,663.75
2019-03-31T08:00:35.243Z,793.12
2019-03-31T08:01:35.249Z,871.88
2019-03-31T08:02:35.252Z,956.25
2019-03-31T08:03:35.247Z,950.62
2019-03-31T08:04:35.227Z,922.50
2019-03-31T08:05:37.686Z,950.62
2019-03-31T08:06:35.210Z,1012.50
2019-03-31T08:07:35.175Z,877.50
2019-03-31T08:08:35.154Z,714.38
2019-03-31T08:09:35.163Z,731.25
2019-03-31T08:10:35.137Z,894.38
2019-03-31T08:11:35.124Z,1141.88
2019-03-31T08:12:35.125Z,1378.12
2019-03-31T08:13:35.113Z,1417.50
2019-03-31T08:14:35.097Z,1164.38
2019-03-31T08:15:35.083Z,1164.38
2019-03-31T08:16:35.103Z,1372.50
2019-03-31T08:17:35.077Z,1153.12
2019-03-31T08:18:35.046Z,1198.12
2019-03-31T08:19:35.033Z,2058.75
2019-03-31T08:20:35.027Z,2340.00
2019-03-31T08:21:35.012Z,2238.75
2019-03-31T08:22:35.071Z,2368.12
2019-03-31T08:23:34.991Z,2283.75
2019-03-31T08:24:34.981Z,2272.50
2019-03-31T08:25:34.967Z,2587.50
2019-03-31T08:26:34.957Z,2086.88
2019-03-31T08:27:34.947Z,2115.00
2019-03-31T08:28:34.953Z,2154.38
2019-03-31T08:29:34.941Z,1620.00
2019-03-31T08:30:34.937Z,1428.75
2019-03-31T08:31:34.941Z,1338.75
2019-03-31T08:32:34.895Z,1158.75
2019-03-31T08:33:34.907Z,1040.62
2019-03-31T08:34:34.873Z,1012.50
2019-03-31T08:35:46.580Z,1074.38
2019-03-31T08:36:35.852Z,1113.75
2019-03-31T08:37:34.839Z,995.62
2019-03-31T08:38:34.847Z,810.00
2019-03-31T08:39:34.820Z,652.50
2019-03-31T08:40:34.803Z,613.12
2019-03-31T08:41:34.794Z,613.12
2019-03-31T08:42:34.791Z,691.88
2019-03-31T08:43:34.831Z,871.88
2019-03-31T08:44:34.766Z,1080.00
2019-03-31T08:45:34.757Z,1181.25
2019-03-31T08:46:34.774Z,1350.00
2019-03-31T08:47:34.744Z,1220.62
2019-03-31T08:48:34.722Z,1153.12
2019-03-31T08:49:34.728Z,1035.00
2019-03-31T08:50:35.091Z,928.12
2019-03-31T08:51:34.688Z,838.12
2019-03-31T08:52:34.773Z,725.62
2019-03-31T08:53:34.669Z,669.38
2019-03-31T08:54:34.673Z,607.50
2019-03-31T08:55:34.640Z,556.88
2019-03-31T08:56:34.634Z,517.50
2019-03-31T08:57:34.618Z,523.12
2019-03-31T08:58:34.632Z,545.62
2019-03-31T08:59:34.616Z,562.50
2019-03-31T09:00:34.595Z,613.12
2019-03-31T09:01:34.579Z,585.00
2019-03-31T09:02:34.567Z,495.00
2019-03-31T09:03:34.557Z,427.50
2019-03-31T09:04:34.604Z,393.75
2019-03-31T09:05:34.533Z,410.62
2019-03-31T09:06:34.526Z,410.62
2019-03-31T09:07:34.521Z,421.88
2019-03-31T09:08:34.502Z,466.88
2019-03-31T09:09:34.504Z,523.12
2019-03-31T09:10:34.503Z,596.25
2019-03-31T09:11:34.468Z,556.88
2019-03-31T09:12:34.468Z,466.88
2019-03-31T09:13:34.450Z,444.38
2019-03-31T09:14:34.472Z,466.88
2019-03-31T09:15:34.421Z,478.12
2019-03-31T09:16:34.430Z,489.38
2019-03-31T09:17:34.407Z,478.12
2019-03-31T09:18:34.394Z,461.25
2019-03-31T09:19:34.379Z,444.38
2019-03-31T09:20:34.384Z,433.12
2019-03-31T09:21:34.358Z,427.50
2019-03-31T09:22:34.352Z,455.62
2019-03-31T09:23:34.353Z,461.25
2019-03-31T09:24:34.356Z,450.00
2019-03-31T09:25:34.346Z,410.62
2019-03-31T09:26:34.305Z,376.88
2019-03-31T09:27:34.294Z,376.88
2019-03-31T09:28:34.281Z,371.25
2019-03-31T09:29:34.275Z,337.50
2019-03-31T09:30:34.288Z,292.50
2019-03-31T09:31:34.255Z,275.62
2019-03-31T09:32:34.250Z,264.38
2019-03-31T09:33:34.233Z,258.75
2019-03-31T09:34:34.231Z,275.62
2019-03-31T09:35:34.210Z,281.25
2019-03-31T09:36:34.208Z,286.88
2019-03-31T09:37:34.183Z,270.00
2019-03-31T09:38:34.174Z,253.12
2019-03-31T09:39:34.166Z,253.12
2019-03-31T09:40:34.182Z,270.00
2019-03-31T09:41:34.155Z,286.88
2019-03-31T09:42:34.128Z,331.88
2019-03-31T09:43:34.119Z,360.00
2019-03-31T09:44:34.107Z,382.50
2019-03-31T09:45:34.097Z,433.12
2019-03-31T09:46:34.144Z,461.25
2019-03-31T09:47:34.082Z,506.25
2019-03-31T09:48:34.063Z,540.00
2019-03-31T09:49:34.056Z,556.88
2019-03-31T09:50:34.047Z,585.00
2019-03-31T09:51:34.054Z,613.12
2019-03-31T09:52:34.076Z,618.75
2019-03-31T09:53:34.011Z,613.12
2019-03-31T09:54:33.997Z,646.88
2019-03-31T09:55:34.002Z,686.25
2019-03-31T09:56:33.981Z,675.00
2019-03-31T09:57:33.986Z,669.38
2019-03-31T09:58:33.955Z,708.75
2019-03-31T09:59:33.957Z,753.75
2019-03-31T10:00:33.939Z,798.75
2019-03-31T10:01:33.922Z,849.38
2019-03-31T10:02:33.941Z,877.50
2019-03-31T10:03:33.901Z,883.12
2019-03-31T10:04:33.889Z,877.50
2019-03-31T10:05:33.877Z,871.88
2019-03-31T10:06:33.897Z,855.00
2019-03-31T10:07:33.872Z,832.50
2019-03-31T10:08:33.863Z,821.25
2019-03-31T10:09:33.832Z,826.88
2019-03-31T10:10:33.827Z,1035.00
2019-03-31T10:11:33.838Z,3521.25
2019-03-31T10:12:33.851Z,3324.38
2019-03-31T10:13:33.811Z,4201.88
2019-03-31T10:14:33.812Z,1659.38
2019-03-31T10:15:33.766Z,1625.62
2019-03-31T10:16:36.306Z,1417.50
2019-03-31T10:22:24.659Z,613.12
2019-03-31T10:23:19.086Z,562.50
2019-03-31T10:24:18.986Z,511.88
2019-03-31T10:25:18.990Z,455.62
2019-03-31T10:26:31.084Z,427.50
2019-03-31T10:27:19.966Z,410.62
2019-03-31T10:28:18.993Z,393.75
2019-03-31T10:29:18.934Z,416.25
2019-03-31T10:30:18.926Z,450.00
2019-03-31T10:31:18.948Z,495.00
2019-03-31T10:32:18.908Z,517.50
2019-03-31T10:33:18.911Z,545.62
2019-03-31T10:34:18.884Z,579.38
2019-03-31T10:35:18.875Z,585.00
2019-03-31T10:36:18.862Z,675.00
2019-03-31T10:37:18.854Z,849.38
2019-03-31T10:38:18.884Z,1828.12
2019-03-31T10:39:18.828Z,1001.25
2019-03-31T10:40:18.824Z,1012.50
2019-03-31T10:41:18.810Z,1029.38
2019-03-31T10:42:18.799Z,995.62
2019-03-31T10:43:18.788Z,961.88
2019-03-31T10:44:18.788Z,3690.00
2019-03-31T10:45:18.786Z,4061.25
2019-03-31T10:46:18.751Z,3780.00
2019-03-31T10:47:18.738Z,3476.25
2019-03-31T10:48:20.634Z,2795.62
2019-03-31T10:49:18.741Z,961.88
2019-03-31T10:50:18.707Z,3341.25
2019-03-31T10:51:18.748Z,2475.00
2019-03-31T10:52:18.745Z,2115.00
2019-03-31T10:53:18.671Z,1001.25
2019-03-31T10:54:18.677Z,1035.00
2019-03-31T10:55:18.655Z,1209.38
2019-03-31T10:56:18.638Z,1327.50
2019-03-31T10:57:18.643Z,1288.12
2019-03-31T10:58:18.626Z,1530.00
2019-03-31T10:59:18.645Z,2328.75
2019-03-31T11:00:18.601Z,1338.75
2019-03-31T11:01:18.598Z,1237.50
2019-03-31T11:02:18.572Z,1794.38
2019-03-31T11:03:18.560Z,1175.62
2019-03-31T11:04:18.568Z,1029.38
2019-03-31T11:05:18.546Z,1012.50
2019-03-31T11:06:18.533Z,1018.12
2019-03-31T11:07:18.517Z,956.25
2019-03-31T11:08:18.509Z,900.00
2019-03-31T11:09:18.509Z,888.75
2019-03-31T11:10:18.483Z,956.25
2019-03-31T11:11:18.471Z,1181.25
2019-03-31T11:12:18.476Z,1260.00
2019-03-31T11:13:18.458Z,1215.00
2019-03-31T11:14:18.486Z,1198.12
2019-03-31T11:15:18.465Z,1203.75
2019-03-31T11:16:18.423Z,1164.38
2019-03-31T11:17:18.409Z,1282.50
2019-03-31T11:18:18.413Z,1417.50
2019-03-31T11:19:18.397Z,1316.25
2019-03-31T11:20:18.397Z,978.75
2019-03-31T11:21:18.365Z,877.50
2019-03-31T11:22:18.365Z,708.75
2019-03-31T11:23:18.354Z,703.12
2019-03-31T11:24:18.337Z,770.62
2019-03-31T11:25:21.213Z,2002.50
2019-03-31T11:26:18.371Z,1428.75
2019-03-31T11:27:18.322Z,1068.75
2019-03-31T11:28:18.291Z,2435.62
2019-03-31T11:29:18.284Z,1040.62
2019-03-31T11:30:18.310Z,922.50
2019-03-31T11:31:18.260Z,1918.12
2019-03-31T11:32:18.265Z,2103.75
2019-03-31T11:33:18.272Z,2278.12
2019-03-31T11:34:19.647Z,2205.00
2019-03-31T11:35:18.229Z,2306.25
2019-03-31T11:36:18.205Z,2227.50
2019-03-31T11:37:18.202Z,2598.75
2019-03-31T11:38:18.184Z,3588.75
2019-03-31T11:39:18.188Z,3740.62
2019-03-31T11:40:18.191Z,3903.75
2019-03-31T11:41:18.152Z,4235.62
2019-03-31T11:42:18.140Z,4398.75
2019-03-31T11:43:18.140Z,4173.75
2019-03-31T11:44:18.121Z,4376.25
2019-03-31T11:45:18.128Z,4702.50
2019-03-31T11:46:18.103Z,4983.75
2019-03-31T11:47:18.096Z,2632.50
2019-03-31T11:48:18.088Z,1794.38
2019-03-31T11:49:18.079Z,2520.00
2019-03-31T11:50:18.100Z,2188.12
2019-03-31T11:51:18.056Z,1816.88
2019-03-31T11:52:18.070Z,1726.88
2019-03-31T11:53:18.031Z,1794.38
2019-03-31T11:54:18.014Z,4775.62
2019-03-31T11:55:18.058Z,4927.50
2019-03-31T11:56:18.006Z,2784.38
2019-03-31T11:57:17.995Z,2739.38
2019-03-31T11:58:17.977Z,2356.88
2019-03-31T11:59:20.668Z,1676.25
2019-03-31T12:00:17.978Z,5422.50
2019-03-31T12:01:17.976Z,1552.50
2019-03-31T12:02:26.955Z,1558.12
2019-03-31T12:03:18.943Z,3465.00
2019-03-31T12:04:17.928Z,1906.88
2019-03-31T12:05:17.906Z,1428.75
2019-03-31T12:06:17.905Z,1260.00
2019-03-31T12:07:27.789Z,1203.75
2019-03-31T12:08:18.865Z,1231.88
2019-03-31T12:09:17.872Z,1226.25
2019-03-31T12:10:19.842Z,1147.50
2019-03-31T12:11:17.869Z,1068.75
2019-03-31T12:12:17.840Z,995.62
2019-03-31T12:13:17.809Z,961.88
2019-03-31T12:14:17.814Z,950.62
2019-03-31T12:15:17.811Z,3076.88
2019-03-31T12:16:17.819Z,956.25
2019-03-31T12:17:17.767Z,793.12
2019-03-31T12:18:17.758Z,742.50
2019-03-31T12:19:17.745Z,821.25
2019-03-31T12:20:17.741Z,736.88
2019-03-31T12:21:17.765Z,781.88
2019-03-31T12:22:17.711Z,843.75
2019-03-31T12:23:17.703Z,1096.88
2019-03-31T12:24:17.697Z,2863.12
2019-03-31T12:25:19.842Z,1102.50
2019-03-31T12:26:17.685Z,1074.38
2019-03-31T12:27:17.663Z,928.12
2019-03-31T12:28:17.651Z,911.25
2019-03-31T12:29:17.641Z,871.88
2019-03-31T12:30:17.630Z,860.62
2019-03-31T12:31:17.644Z,900.00
2019-03-31T12:32:17.609Z,1175.62
2019-03-31T12:33:17.603Z,1856.25
2019-03-31T12:34:17.596Z,1108.12
2019-03-31T12:35:17.573Z,1080.00
2019-03-31T12:36:17.563Z,1305.00
2019-03-31T12:37:17.569Z,5321.25
2019-03-31T12:38:17.536Z,3740.62
2019-03-31T12:39:17.533Z,3273.75
2019-03-31T12:40:17.525Z,1743.75
2019-03-31T12:41:17.512Z,4426.88
2019-03-31T12:42:17.512Z,3825.00
2019-03-31T12:43:17.508Z,2160.00
2019-03-31T12:44:17.482Z,4972.50
2019-03-31T12:45:17.472Z,4893.75